Terminal Aerodrome Forecast
Issued by NWS

Home | Current Version | Previous Version | Text Only | Print | Product List | Glossary On
Versions: 1 2 3 4 5 6 7 8 9 10 11 12 13 14 15
703
FTUS43 KOAX 051740 CCA
TAFBFF
TAF COR
KBFF 051740Z 0518/0618 34020G28KT P6SM FEW030
     FM052100 33018G27KT P6SM BKN080
     FM060200 30011KT P6SM SKC=

USA.gov is the U.S. government's official web portal to all federal, state and local government web resources and services.